sensor_id;sensor_type;location;lat;lon;timestamp;P1;durP1;ratioP1;P2;durP2;ratioP2
68870;SDS011;55906;52.278;6.808;2022-09-02T00:00:03;3.30;;;2.22;;
68870;SDS011;55906;52.278;6.808;2022-09-02T00:02:32;3.80;;;2.13;;
68870;SDS011;55906;52.278;6.808;2022-09-02T00:04:59;3.33;;;2.20;;
68870;SDS011;55906;52.278;6.808;2022-09-02T00:07:25;3.20;;;2.00;;
68870;SDS011;55906;52.278;6.808;2022-09-02T00:09:53;3.35;;;2.08;;
68870;SDS011;55906;52.278;6.808;2022-09-02T00:12:20;3.40;;;2.20;;
68870;SDS011;55906;52.278;6.808;2022-09-02T00:14:47;3.38;;;2.30;;
68870;SDS011;55906;52.278;6.808;2022-09-02T00:17:14;3.50;;;2.50;;
68870;SDS011;55906;52.278;6.808;2022-09-02T00:19:40;5.57;;;2.42;;
68870;SDS011;55906;52.278;6.808;2022-09-02T00:22:07;4.90;;;2.00;;
68870;SDS011;55906;52.278;6.808;2022-09-02T00:24:33;2.90;;;1.92;;
68870;SDS011;55906;52.278;6.808;2022-09-02T00:27:01;3.17;;;2.08;;
68870;SDS011;55906;52.278;6.808;2022-09-02T00:29:28;3.33;;;1.97;;
68870;SDS011;55906;52.278;6.808;2022-09-02T00:31:55;4.07;;;2.08;;
68870;SDS011;55906;52.278;6.808;2022-09-02T00:34:22;3.28;;;2.10;;
68870;SDS011;55906;52.278;6.808;2022-09-02T00:36:48;5.65;;;2.20;;
68870;SDS011;55906;52.278;6.808;2022-09-02T00:39:15;3.33;;;2.10;;
68870;SDS011;55906;52.278;6.808;2022-09-02T00:41:45;3.20;;;2.10;;
68870;SDS011;55906;52.278;6.808;2022-09-02T00:44:14;3.53;;;2.30;;
68870;SDS011;55906;52.278;6.808;2022-09-02T00:46:42;3.58;;;2.20;;
68870;SDS011;55906;52.278;6.808;2022-09-02T00:49:10;3.35;;;2.00;;
68870;SDS011;55906;52.278;6.808;2022-09-02T00:51:41;3.78;;;2.50;;
68870;SDS011;55906;52.278;6.808;2022-09-02T00:54:11;3.27;;;2.20;;
68870;SDS011;55906;52.278;6.808;2022-09-02T00:56:40;3.25;;;2.10;;
68870;SDS011;55906;52.278;6.808;2022-09-02T00:59:11;3.83;;;2.20;;
68870;SDS011;55906;52.278;6.808;2022-09-02T01:01:43;3.83;;;2.40;;
68870;SDS011;55906;52.278;6.808;2022-09-02T01:04:09;3.50;;;2.10;;
68870;SDS011;55906;52.278;6.808;2022-09-02T01:06:36;3.83;;;2.40;;
68870;SDS011;55906;52.278;6.808;2022-09-02T01:09:04;4.60;;;2.10;;
68870;SDS011;55906;52.278;6.808;2022-09-02T01:11:40;3.30;;;2.28;;
68870;SDS011;55906;52.278;6.808;2022-09-02T01:14:09;3.78;;;2.70;;
68870;SDS011;55906;52.278;6.808;2022-09-02T01:16:38;3.58;;;2.40;;
68870;SDS011;55906;52.278;6.808;2022-09-02T01:19:12;4.53;;;2.80;;
68870;SDS011;55906;52.278;6.808;2022-09-02T01:21:46;3.65;;;2.45;;
68870;SDS011;55906;52.278;6.808;2022-09-02T01:24:15;5.78;;;2.22;;
68870;SDS011;55906;52.278;6.808;2022-09-02T01:26:42;3.60;;;2.53;;
68870;SDS011;55906;52.278;6.808;2022-09-02T01:29:09;3.35;;;2.13;;
68870;SDS011;55906;52.278;6.808;2022-09-02T01:31:36;3.20;;;2.10;;
68870;SDS011;55906;52.278;6.808;2022-09-02T01:34:03;3.72;;;2.58;;
68870;SDS011;55906;52.278;6.808;2022-09-02T01:36:30;5.75;;;2.47;;
68870;SDS011;55906;52.278;6.808;2022-09-02T01:38:59;3.60;;;2.28;;
68870;SDS011;55906;52.278;6.808;2022-09-02T01:41:25;4.68;;;2.55;;
68870;SDS011;55906;52.278;6.808;2022-09-02T01:43:52;4.00;;;2.10;;
68870;SDS011;55906;52.278;6.808;2022-09-02T01:46:18;3.30;;;2.10;;
68870;SDS011;55906;52.278;6.808;2022-09-02T01:48:45;3.50;;;2.17;;
68870;SDS011;55906;52.278;6.808;2022-09-02T01:51:14;3.33;;;2.10;;
68870;SDS011;55906;52.278;6.808;2022-09-02T01:53:43;3.72;;;2.20;;
68870;SDS011;55906;52.278;6.808;2022-09-02T01:56:11;4.47;;;2.07;;
68870;SDS011;55906;52.278;6.808;2022-09-02T01:58:38;3.83;;;2.33;;
68870;SDS011;55906;52.278;6.808;2022-09-02T02:01:06;4.60;;;2.28;;
68870;SDS011;55906;52.278;6.808;2022-09-02T02:03:33;3.92;;;2.20;;
68870;SDS011;55906;52.278;6.808;2022-09-02T02:05:59;3.92;;;3.05;;
68870;SDS011;55906;52.278;6.808;2022-09-02T02:08:26;5.17;;;2.23;;
68870;SDS011;55906;52.278;6.808;2022-09-02T02:10:54;3.40;;;2.00;;
68870;SDS011;55906;52.278;6.808;2022-09-02T02:13:22;4.53;;;2.47;;
68870;SDS011;55906;52.278;6.808;2022-09-02T02:15:49;3.45;;;2.10;;
68870;SDS011;55906;52.278;6.808;2022-09-02T02:18:16;3.75;;;2.58;;
68870;SDS011;55906;52.278;6.808;2022-09-02T02:20:42;3.13;;;2.10;;
68870;SDS011;55906;52.278;6.808;2022-09-02T02:23:09;3.42;;;1.98;;
68870;SDS011;55906;52.278;6.808;2022-09-02T02:25:36;3.92;;;2.70;;
68870;SDS011;55906;52.278;6.808;2022-09-02T02:28:03;5.38;;;2.60;;
68870;SDS011;55906;52.278;6.808;2022-09-02T02:30:31;5.72;;;2.33;;
68870;SDS011;55906;52.278;6.808;2022-09-02T02:32:58;3.27;;;2.20;;
68870;SDS011;55906;52.278;6.808;2022-09-02T02:35:25;3.83;;;2.30;;
68870;SDS011;55906;52.278;6.808;2022-09-02T02:37:52;3.72;;;2.20;;
68870;SDS011;55906;52.278;6.808;2022-09-02T02:40:20;3.55;;;2.28;;
68870;SDS011;55906;52.278;6.808;2022-09-02T02:42:49;3.50;;;2.22;;
68870;SDS011;55906;52.278;6.808;2022-09-02T02:45:17;5.50;;;2.40;;
68870;SDS011;55906;52.278;6.808;2022-09-02T02:47:45;3.70;;;2.30;;
68870;SDS011;55906;52.278;6.808;2022-09-02T02:50:13;6.13;;;2.55;;
68870;SDS011;55906;52.278;6.808;2022-09-02T02:52:41;3.60;;;2.30;;
68870;SDS011;55906;52.278;6.808;2022-09-02T02:55:09;3.70;;;2.25;;
68870;SDS011;55906;52.278;6.808;2022-09-02T02:57:37;5.70;;;2.27;;
68870;SDS011;55906;52.278;6.808;2022-09-02T03:00:05;4.68;;;2.50;;
68870;SDS011;55906;52.278;6.808;2022-09-02T03:02:33;3.70;;;2.47;;
68870;SDS011;55906;52.278;6.808;2022-09-02T03:05:02;3.80;;;2.25;;
68870;SDS011;55906;52.278;6.808;2022-09-02T03:07:30;3.67;;;2.45;;
68870;SDS011;55906;52.278;6.808;2022-09-02T03:09:56;4.43;;;2.10;;
68870;SDS011;55906;52.278;6.808;2022-09-02T03:12:25;4.03;;;2.50;;
68870;SDS011;55906;52.278;6.808;2022-09-02T03:14:52;3.38;;;2.10;;
68870;SDS011;55906;52.278;6.808;2022-09-02T03:17:18;4.13;;;2.28;;
68870;SDS011;55906;52.278;6.808;2022-09-02T03:19:45;3.22;;;2.03;;
68870;SDS011;55906;52.278;6.808;2022-09-02T03:22:13;3.70;;;2.40;;
68870;SDS011;55906;52.278;6.808;2022-09-02T03:24:40;3.47;;;2.58;;
68870;SDS011;55906;52.278;6.808;2022-09-02T03:27:06;3.45;;;2.25;;
68870;SDS011;55906;52.278;6.808;2022-09-02T03:29:33;4.25;;;2.20;;
68870;SDS011;55906;52.278;6.808;2022-09-02T03:32:00;4.05;;;2.45;;
68870;SDS011;55906;52.278;6.808;2022-09-02T03:34:26;3.50;;;2.30;;
68870;SDS011;55906;52.278;6.808;2022-09-02T03:36:53;4.72;;;2.75;;
68870;SDS011;55906;52.278;6.808;2022-09-02T03:39:21;3.30;;;2.22;;
68870;SDS011;55906;52.278;6.808;2022-09-02T03:41:47;4.65;;;2.47;;
68870;SDS011;55906;52.278;6.808;2022-09-02T03:44:14;3.50;;;2.40;;
68870;SDS011;55906;52.278;6.808;2022-09-02T03:46:42;4.30;;;2.47;;
68870;SDS011;55906;52.278;6.808;2022-09-02T03:49:08;3.97;;;2.10;;
68870;SDS011;55906;52.278;6.808;2022-09-02T03:51:38;4.22;;;2.40;;
68870;SDS011;55906;52.278;6.808;2022-09-02T03:54:05;3.35;;;2.10;;
68870;SDS011;55906;52.278;6.808;2022-09-02T03:56:33;3.40;;;2.20;;
68870;SDS011;55906;52.278;6.808;2022-09-02T03:59:00;3.70;;;2.40;;
68870;SDS011;55906;52.278;6.808;2022-09-02T04:01:27;7.15;;;2.10;;
68870;SDS011;55906;52.278;6.808;2022-09-02T04:03:53;6.32;;;2.47;;
68870;SDS011;55906;52.278;6.808;2022-09-02T04:06:21;3.65;;;2.22;;
68870;SDS011;55906;52.278;6.808;2022-09-02T04:08:49;3.85;;;2.67;;
68870;SDS011;55906;52.278;6.808;2022-09-02T04:11:17;4.40;;;2.33;;
68870;SDS011;55906;52.278;6.808;2022-09-02T04:13:47;4.10;;;2.85;;
68870;SDS011;55906;52.278;6.808;2022-09-02T04:16:15;3.85;;;2.55;;
68870;SDS011;55906;52.278;6.808;2022-09-02T04:18:43;4.18;;;2.45;;
68870;SDS011;55906;52.278;6.808;2022-09-02T04:21:10;4.10;;;2.50;;
68870;SDS011;55906;52.278;6.808;2022-09-02T04:23:38;5.30;;;2.50;;
68870;SDS011;55906;52.278;6.808;2022-09-02T04:26:06;5.63;;;2.67;;
68870;SDS011;55906;52.278;6.808;2022-09-02T04:28:34;4.85;;;3.10;;
68870;SDS011;55906;52.278;6.808;2022-09-02T04:31:03;4.10;;;2.40;;
68870;SDS011;55906;52.278;6.808;2022-09-02T04:33:30;3.88;;;2.53;;
68870;SDS011;55906;52.278;6.808;2022-09-02T04:35:57;3.40;;;2.20;;
68870;SDS011;55906;52.278;6.808;2022-09-02T04:38:24;3.92;;;2.90;;
68870;SDS011;55906;52.278;6.808;2022-09-02T04:40:50;3.63;;;2.40;;
68870;SDS011;55906;52.278;6.808;2022-09-02T04:43:17;3.60;;;2.50;;
68870;SDS011;55906;52.278;6.808;2022-09-02T04:45:45;4.05;;;2.42;;
68870;SDS011;55906;52.278;6.808;2022-09-02T04:48:13;4.77;;;2.43;;
68870;SDS011;55906;52.278;6.808;2022-09-02T04:50:40;3.90;;;2.40;;
68870;SDS011;55906;52.278;6.808;2022-09-02T04:53:07;4.07;;;2.50;;
68870;SDS011;55906;52.278;6.808;2022-09-02T04:55:34;3.78;;;2.40;;
68870;SDS011;55906;52.278;6.808;2022-09-02T04:58:03;4.07;;;2.38;;
68870;SDS011;55906;52.278;6.808;2022-09-02T05:00:30;3.80;;;2.50;;
68870;SDS011;55906;52.278;6.808;2022-09-02T05:02:57;4.30;;;2.70;;
68870;SDS011;55906;52.278;6.808;2022-09-02T05:05:25;3.47;;;2.30;;
68870;SDS011;55906;52.278;6.808;2022-09-02T05:07:51;3.83;;;2.72;;
68870;SDS011;55906;52.278;6.808;2022-09-02T05:10:20;3.53;;;2.40;;
68870;SDS011;55906;52.278;6.808;2022-09-02T05:12:47;4.03;;;2.77;;
68870;SDS011;55906;52.278;6.808;2022-09-02T05:15:17;4.15;;;2.45;;
68870;SDS011;55906;52.278;6.808;2022-09-02T05:17:47;4.68;;;2.63;;
68870;SDS011;55906;52.278;6.808;2022-09-02T05:20:13;3.40;;;2.00;;
68870;SDS011;55906;52.278;6.808;2022-09-02T05:22:42;5.05;;;2.88;;
68870;SDS011;55906;52.278;6.808;2022-09-02T05:25:08;4.87;;;2.80;;
68870;SDS011;55906;52.278;6.808;2022-09-02T05:27:36;4.03;;;2.30;;
68870;SDS011;55906;52.278;6.808;2022-09-02T05:30:04;4.20;;;2.60;;
68870;SDS011;55906;52.278;6.808;2022-09-02T05:32:31;3.95;;;2.60;;
68870;SDS011;55906;52.278;6.808;2022-09-02T05:34:58;4.03;;;2.70;;
68870;SDS011;55906;52.278;6.808;2022-09-02T05:37:25;3.40;;;2.20;;
68870;SDS011;55906;52.278;6.808;2022-09-02T05:39:53;5.00;;;2.53;;
68870;SDS011;55906;52.278;6.808;2022-09-02T05:42:19;3.90;;;2.45;;
68870;SDS011;55906;52.278;6.808;2022-09-02T05:44:46;3.63;;;2.58;;
68870;SDS011;55906;52.278;6.808;2022-09-02T05:47:13;3.85;;;2.53;;
68870;SDS011;55906;52.278;6.808;2022-09-02T05:49:41;6.43;;;2.70;;
68870;SDS011;55906;52.278;6.808;2022-09-02T05:52:08;3.47;;;2.35;;
68870;SDS011;55906;52.278;6.808;2022-09-02T05:54:36;3.95;;;2.47;;
68870;SDS011;55906;52.278;6.808;2022-09-02T05:57:06;3.92;;;2.20;;
68870;SDS011;55906;52.278;6.808;2022-09-02T05:59:34;3.90;;;2.30;;
68870;SDS011;55906;52.278;6.808;2022-09-02T06:02:04;4.10;;;2.70;;
68870;SDS011;55906;52.278;6.808;2022-09-02T06:04:31;4.25;;;2.70;;
68870;SDS011;55906;52.278;6.808;2022-09-02T06:06:57;4.28;;;2.40;;
68870;SDS011;55906;52.278;6.808;2022-09-02T06:09:24;4.18;;;2.47;;
68870;SDS011;55906;52.278;6.808;2022-09-02T06:11:51;4.85;;;2.80;;
68870;SDS011;55906;52.278;6.808;2022-09-02T06:14:19;3.77;;;2.40;;
68870;SDS011;55906;52.278;6.808;2022-09-02T06:16:49;4.20;;;2.38;;
68870;SDS011;55906;52.278;6.808;2022-09-02T06:19:19;3.63;;;2.13;;
68870;SDS011;55906;52.278;6.808;2022-09-02T06:21:46;3.60;;;2.40;;
68870;SDS011;55906;52.278;6.808;2022-09-02T06:24:13;4.10;;;2.92;;
68870;SDS011;55906;52.278;6.808;2022-09-02T06:26:40;4.80;;;2.70;;
68870;SDS011;55906;52.278;6.808;2022-09-02T06:29:07;3.83;;;2.60;;
68870;SDS011;55906;52.278;6.808;2022-09-02T06:31:38;4.80;;;2.63;;
68870;SDS011;55906;52.278;6.808;2022-09-02T06:34:06;3.90;;;2.60;;
68870;SDS011;55906;52.278;6.808;2022-09-02T06:36:36;3.95;;;2.30;;
68870;SDS011;55906;52.278;6.808;2022-09-02T06:39:03;5.20;;;2.80;;
68870;SDS011;55906;52.278;6.808;2022-09-02T06:41:30;3.92;;;2.53;;
68870;SDS011;55906;52.278;6.808;2022-09-02T06:43:58;6.30;;;2.50;;
68870;SDS011;55906;52.278;6.808;2022-09-02T06:46:28;4.53;;;2.33;;
68870;SDS011;55906;52.278;6.808;2022-09-02T06:48:58;5.00;;;2.40;;
68870;SDS011;55906;52.278;6.808;2022-09-02T06:51:26;3.70;;;2.47;;
68870;SDS011;55906;52.278;6.808;2022-09-02T06:53:54;4.80;;;2.58;;
68870;SDS011;55906;52.278;6.808;2022-09-02T06:56:21;4.20;;;2.85;;
68870;SDS011;55906;52.278;6.808;2022-09-02T06:58:48;7.63;;;2.35;;
68870;SDS011;55906;52.278;6.808;2022-09-02T07:01:18;4.43;;;2.10;;
68870;SDS011;55906;52.278;6.808;2022-09-02T07:03:45;4.20;;;2.40;;
68870;SDS011;55906;52.278;6.808;2022-09-02T07:06:33;6.93;;;2.25;;
68870;SDS011;55906;52.278;6.808;2022-09-02T07:09:02;4.10;;;2.40;;
68870;SDS011;55906;52.278;6.808;2022-09-02T07:11:30;3.95;;;2.35;;
68870;SDS011;55906;52.278;6.808;2022-09-02T07:13:56;4.18;;;2.30;;
68870;SDS011;55906;52.278;6.808;2022-09-02T07:16:25;6.63;;;2.90;;
68870;SDS011;55906;52.278;6.808;2022-09-02T07:18:53;6.75;;;2.40;;
68870;SDS011;55906;52.278;6.808;2022-09-02T07:21:20;4.22;;;2.30;;
68870;SDS011;55906;52.278;6.808;2022-09-02T07:23:48;5.30;;;2.63;;
68870;SDS011;55906;52.278;6.808;2022-09-02T07:26:15;7.35;;;2.80;;
68870;SDS011;55906;52.278;6.808;2022-09-02T07:28:42;4.13;;;2.37;;
68870;SDS011;55906;52.278;6.808;2022-09-02T07:31:11;3.38;;;2.05;;
68870;SDS011;55906;52.278;6.808;2022-09-02T07:33:39;4.28;;;2.22;;
68870;SDS011;55906;52.278;6.808;2022-09-02T07:36:06;4.20;;;2.22;;
68870;SDS011;55906;52.278;6.808;2022-09-02T07:38:34;4.25;;;2.38;;
68870;SDS011;55906;52.278;6.808;2022-09-02T07:41:03;3.73;;;2.10;;
68870;SDS011;55906;52.278;6.808;2022-09-02T07:43:30;5.97;;;2.50;;
68870;SDS011;55906;52.278;6.808;2022-09-02T07:45:57;4.03;;;2.20;;
68870;SDS011;55906;52.278;6.808;2022-09-02T07:48:25;3.97;;;2.42;;
68870;SDS011;55906;52.278;6.808;2022-09-02T07:50:53;6.97;;;2.13;;
68870;SDS011;55906;52.278;6.808;2022-09-02T07:53:19;6.43;;;2.30;;
68870;SDS011;55906;52.278;6.808;2022-09-02T07:55:47;3.80;;;2.30;;
68870;SDS011;55906;52.278;6.808;2022-09-02T07:58:16;5.60;;;2.40;;
68870;SDS011;55906;52.278;6.808;2022-09-02T08:00:44;4.30;;;2.10;;
68870;SDS011;55906;52.278;6.808;2022-09-02T08:03:12;4.72;;;2.58;;
68870;SDS011;55906;52.278;6.808;2022-09-02T08:05:40;6.22;;;2.28;;
68870;SDS011;55906;52.278;6.808;2022-09-02T08:08:09;4.32;;;2.40;;
68870;SDS011;55906;52.278;6.808;2022-09-02T08:10:36;4.95;;;2.25;;
68870;SDS011;55906;52.278;6.808;2022-09-02T08:13:03;7.65;;;2.80;;
68870;SDS011;55906;52.278;6.808;2022-09-02T08:15:32;4.65;;;2.58;;
68870;SDS011;55906;52.278;6.808;2022-09-02T08:18:01;4.07;;;2.10;;
68870;SDS011;55906;52.278;6.808;2022-09-02T08:20:28;5.25;;;2.67;;
68870;SDS011;55906;52.278;6.808;2022-09-02T08:22:55;6.53;;;2.08;;
68870;SDS011;55906;52.278;6.808;2022-09-02T08:25:22;4.85;;;1.77;;
68870;SDS011;55906;52.278;6.808;2022-09-02T08:27:49;7.05;;;2.10;;
68870;SDS011;55906;52.278;6.808;2022-09-02T08:30:15;4.68;;;2.10;;
68870;SDS011;55906;52.278;6.808;2022-09-02T08:32:43;4.88;;;1.95;;
68870;SDS011;55906;52.278;6.808;2022-09-02T08:35:10;6.18;;;1.90;;
68870;SDS011;55906;52.278;6.808;2022-09-02T08:37:37;7.72;;;1.90;;
68870;SDS011;55906;52.278;6.808;2022-09-02T08:40:05;3.55;;;1.60;;
68870;SDS011;55906;52.278;6.808;2022-09-02T08:42:37;6.38;;;2.03;;
68870;SDS011;55906;52.278;6.808;2022-09-02T08:45:10;4.83;;;1.73;;
68870;SDS011;55906;52.278;6.808;2022-09-02T08:47:39;4.95;;;1.42;;
68870;SDS011;55906;52.278;6.808;2022-09-02T08:50:11;3.35;;;1.40;;
68870;SDS011;55906;52.278;6.808;2022-09-02T08:52:41;4.53;;;1.38;;
68870;SDS011;55906;52.278;6.808;2022-09-02T08:55:11;7.00;;;1.48;;
68870;SDS011;55906;52.278;6.808;2022-09-02T08:57:44;4.03;;;1.10;;
68870;SDS011;55906;52.278;6.808;2022-09-02T09:00:13;3.80;;;1.30;;
68870;SDS011;55906;52.278;6.808;2022-09-02T09:02:43;6.68;;;1.58;;
68870;SDS011;55906;52.278;6.808;2022-09-02T09:05:27;3.30;;;1.30;;
68870;SDS011;55906;52.278;6.808;2022-09-02T09:08:05;7.25;;;1.50;;
68870;SDS011;55906;52.278;6.808;2022-09-02T09:10:39;3.63;;;1.20;;
68870;SDS011;55906;52.278;6.808;2022-09-02T09:13:24;3.28;;;1.23;;
68870;SDS011;55906;52.278;6.808;2022-09-02T09:16:07;3.42;;;1.20;;
68870;SDS011;55906;52.278;6.808;2022-09-02T09:18:43;3.35;;;1.10;;
68870;SDS011;55906;52.278;6.808;2022-09-02T09:21:21;3.90;;;1.08;;
68870;SDS011;55906;52.278;6.808;2022-09-02T09:23:49;4.47;;;1.10;;
68870;SDS011;55906;52.278;6.808;2022-09-02T09:26:19;3.13;;;1.15;;
68870;SDS011;55906;52.278;6.808;2022-09-02T09:28:51;3.78;;;1.25;;
68870;SDS011;55906;52.278;6.808;2022-09-02T09:31:20;4.93;;;1.10;;
68870;SDS011;55906;52.278;6.808;2022-09-02T09:33:56;3.53;;;1.13;;
68870;SDS011;55906;52.278;6.808;2022-09-02T09:36:43;4.80;;;1.40;;
68870;SDS011;55906;52.278;6.808;2022-09-02T09:39:17;3.20;;;1.13;;
68870;SDS011;55906;52.278;6.808;2022-09-02T09:41:45;3.67;;;1.30;;
68870;SDS011;55906;52.278;6.808;2022-09-02T09:44:26;3.60;;;1.10;;
68870;SDS011;55906;52.278;6.808;2022-09-02T09:47:01;3.25;;;1.10;;
68870;SDS011;55906;52.278;6.808;2022-09-02T09:49:30;3.07;;;1.07;;
68870;SDS011;55906;52.278;6.808;2022-09-02T09:51:59;5.80;;;1.27;;
68870;SDS011;55906;52.278;6.808;2022-09-02T09:54:26;4.75;;;1.10;;
68870;SDS011;55906;52.278;6.808;2022-09-02T09:56:53;3.80;;;1.10;;
68870;SDS011;55906;52.278;6.808;2022-09-02T09:59:36;5.32;;;1.10;;
68870;SDS011;55906;52.278;6.808;2022-09-02T10:02:09;3.93;;;1.30;;
68870;SDS011;55906;52.278;6.808;2022-09-02T10:04:45;3.25;;;1.10;;
68870;SDS011;55906;52.278;6.808;2022-09-02T10:07:13;6.47;;;1.10;;
68870;SDS011;55906;52.278;6.808;2022-09-02T10:09:40;3.50;;;0.90;;
68870;SDS011;55906;52.278;6.808;2022-09-02T10:12:07;5.07;;;1.17;;
68870;SDS011;55906;52.278;6.808;2022-09-02T10:14:36;5.10;;;0.90;;
68870;SDS011;55906;52.278;6.808;2022-09-02T10:17:12;3.15;;;0.93;;
68870;SDS011;55906;52.278;6.808;2022-09-02T10:19:59;4.05;;;1.02;;
68870;SDS011;55906;52.278;6.808;2022-09-02T10:22:40;3.22;;;1.00;;
68870;SDS011;55906;52.278;6.808;2022-09-02T10:25:21;4.55;;;1.20;;
68870;SDS011;55906;52.278;6.808;2022-09-02T10:27:54;3.83;;;1.10;;
68870;SDS011;55906;52.278;6.808;2022-09-02T10:30:28;5.13;;;1.13;;
68870;SDS011;55906;52.278;6.808;2022-09-02T10:33:04;3.42;;;1.20;;
68870;SDS011;55906;52.278;6.808;2022-09-02T10:35:44;3.97;;;1.10;;
68870;SDS011;55906;52.278;6.808;2022-09-02T10:38:24;4.32;;;0.90;;
68870;SDS011;55906;52.278;6.808;2022-09-02T10:40:59;5.20;;;0.80;;
68870;SDS011;55906;52.278;6.808;2022-09-02T10:43:42;3.65;;;0.90;;
68870;SDS011;55906;52.278;6.808;2022-09-02T10:46:20;2.60;;;0.80;;
68870;SDS011;55906;52.278;6.808;2022-09-02T10:48:51;3.25;;;0.90;;
68870;SDS011;55906;52.278;6.808;2022-09-02T10:51:28;2.70;;;0.80;;
68870;SDS011;55906;52.278;6.808;2022-09-02T10:54:12;3.47;;;0.90;;
68870;SDS011;55906;52.278;6.808;2022-09-02T10:56:54;3.28;;;0.80;;
68870;SDS011;55906;52.278;6.808;2022-09-02T10:59:29;3.05;;;0.90;;
68870;SDS011;55906;52.278;6.808;2022-09-02T11:02:03;3.58;;;1.00;;
68870;SDS011;55906;52.278;6.808;2022-09-02T11:04:36;3.13;;;0.77;;
68870;SDS011;55906;52.278;6.808;2022-09-02T11:07:11;5.40;;;1.00;;
68870;SDS011;55906;52.278;6.808;2022-09-02T11:09:44;3.95;;;1.00;;
68870;SDS011;55906;52.278;6.808;2022-09-02T11:12:14;3.17;;;0.85;;
68870;SDS011;55906;52.278;6.808;2022-09-02T11:14:50;4.13;;;0.82;;
68870;SDS011;55906;52.278;6.808;2022-09-02T11:17:23;2.72;;;0.80;;
68870;SDS011;55906;52.278;6.808;2022-09-02T11:19:57;5.03;;;1.00;;
68870;SDS011;55906;52.278;6.808;2022-09-02T11:22:32;3.10;;;0.90;;
68870;SDS011;55906;52.278;6.808;2022-09-02T11:25:07;3.33;;;0.80;;
68870;SDS011;55906;52.278;6.808;2022-09-02T11:27:40;3.80;;;0.98;;
68870;SDS011;55906;52.278;6.808;2022-09-02T11:30:13;4.72;;;0.90;;
68870;SDS011;55906;52.278;6.808;2022-09-02T11:32:46;10.33;;;1.40;;
68870;SDS011;55906;52.278;6.808;2022-09-02T11:35:19;4.60;;;1.00;;
68870;SDS011;55906;52.278;6.808;2022-09-02T11:37:51;3.20;;;1.00;;
68870;SDS011;55906;52.278;6.808;2022-09-02T11:40:25;3.45;;;1.13;;
68870;SDS011;55906;52.278;6.808;2022-09-02T11:43:01;5.07;;;1.00;;
68870;SDS011;55906;52.278;6.808;2022-09-02T11:48:48;2.72;;;0.93;;
68870;SDS011;55906;52.278;6.808;2022-09-02T11:51:31;3.00;;;0.90;;
68870;SDS011;55906;52.278;6.808;2022-09-02T11:54:10;3.90;;;1.00;;
68870;SDS011;55906;52.278;6.808;2022-09-02T11:56:40;3.35;;;1.00;;
68870;SDS011;55906;52.278;6.808;2022-09-02T11:59:18;3.60;;;1.10;;
68870;SDS011;55906;52.278;6.808;2022-09-02T12:01:47;3.60;;;1.10;;
68870;SDS011;55906;52.278;6.808;2022-09-02T12:04:19;3.03;;;0.90;;
68870;SDS011;55906;52.278;6.808;2022-09-02T12:09:50;5.40;;;1.00;;
68870;SDS011;55906;52.278;6.808;2022-09-02T12:15:24;5.18;;;1.02;;
68870;SDS011;55906;52.278;6.808;2022-09-02T12:29:33;5.00;;;1.20;;
68870;SDS011;55906;52.278;6.808;2022-09-02T12:32:02;3.83;;;0.80;;
68870;SDS011;55906;52.278;6.808;2022-09-02T12:34:51;3.42;;;1.00;;
68870;SDS011;55906;52.278;6.808;2022-09-02T12:43:05;4.25;;;1.00;;
68870;SDS011;55906;52.278;6.808;2022-09-02T12:45:45;5.18;;;1.13;;
68870;SDS011;55906;52.278;6.808;2022-09-02T12:48:14;3.13;;;1.00;;
68870;SDS011;55906;52.278;6.808;2022-09-02T12:50:51;3.50;;;1.20;;
68870;SDS011;55906;52.278;6.808;2022-09-02T12:53:23;4.03;;;1.30;;
68870;SDS011;55906;52.278;6.808;2022-09-02T12:55:55;3.20;;;1.23;;
68870;SDS011;55906;52.278;6.808;2022-09-02T12:58:25;4.95;;;1.30;;
68870;SDS011;55906;52.278;6.808;2022-09-02T13:00:59;3.60;;;1.00;;
68870;SDS011;55906;52.278;6.808;2022-09-02T13:03:38;3.20;;;1.20;;
68870;SDS011;55906;52.278;6.808;2022-09-02T13:06:17;3.70;;;1.40;;
68870;SDS011;55906;52.278;6.808;2022-09-02T13:15:10;4.03;;;1.40;;
68870;SDS011;55906;52.278;6.808;2022-09-02T13:18:07;3.55;;;1.25;;
68870;SDS011;55906;52.278;6.808;2022-09-02T13:20:56;6.10;;;1.40;;
68870;SDS011;55906;52.278;6.808;2022-09-02T13:23:52;4.07;;;1.13;;
68870;SDS011;55906;52.278;6.808;2022-09-02T13:29:59;4.75;;;1.38;;
68870;SDS011;55906;52.278;6.808;2022-09-02T13:32:31;4.85;;;1.40;;
68870;SDS011;55906;52.278;6.808;2022-09-02T13:35:00;5.40;;;1.60;;
68870;SDS011;55906;52.278;6.808;2022-09-02T13:37:31;4.43;;;1.60;;
68870;SDS011;55906;52.278;6.808;2022-09-02T13:39:59;3.70;;;1.80;;
68870;SDS011;55906;52.278;6.808;2022-09-02T13:42:29;5.30;;;1.65;;
68870;SDS011;55906;52.278;6.808;2022-09-02T13:45:12;3.35;;;1.50;;
68870;SDS011;55906;52.278;6.808;2022-09-02T13:47:40;6.73;;;1.50;;
68870;SDS011;55906;52.278;6.808;2022-09-02T13:50:08;4.55;;;1.40;;
68870;SDS011;55906;52.278;6.808;2022-09-02T13:52:39;3.92;;;1.30;;
68870;SDS011;55906;52.278;6.808;2022-09-02T13:55:06;3.55;;;1.27;;
68870;SDS011;55906;52.278;6.808;2022-09-02T13:57:36;3.40;;;1.15;;
68870;SDS011;55906;52.278;6.808;2022-09-02T14:00:03;2.90;;;1.00;;
68870;SDS011;55906;52.278;6.808;2022-09-02T14:02:32;3.17;;;1.30;;
68870;SDS011;55906;52.278;6.808;2022-09-02T14:05:00;4.90;;;1.50;;
68870;SDS011;55906;52.278;6.808;2022-09-02T14:07:30;3.70;;;1.23;;
68870;SDS011;55906;52.278;6.808;2022-09-02T14:10:03;3.30;;;1.30;;
68870;SDS011;55906;52.278;6.808;2022-09-02T14:12:34;3.07;;;1.30;;
68870;SDS011;55906;52.278;6.808;2022-09-02T14:15:03;3.20;;;1.33;;
68870;SDS011;55906;52.278;6.808;2022-09-02T14:17:32;3.67;;;1.40;;
68870;SDS011;55906;52.278;6.808;2022-09-02T14:20:07;3.63;;;1.30;;
68870;SDS011;55906;52.278;6.808;2022-09-02T14:22:35;3.08;;;1.40;;
68870;SDS011;55906;52.278;6.808;2022-09-02T14:25:08;3.47;;;1.47;;
68870;SDS011;55906;52.278;6.808;2022-09-02T14:27:38;3.58;;;1.30;;
68870;SDS011;55906;52.278;6.808;2022-09-02T14:30:06;3.15;;;1.10;;
68870;SDS011;55906;52.278;6.808;2022-09-02T14:32:34;3.13;;;1.17;;
68870;SDS011;55906;52.278;6.808;2022-09-02T14:35:17;3.28;;;1.17;;
68870;SDS011;55906;52.278;6.808;2022-09-02T14:37:46;2.90;;;1.00;;
68870;SDS011;55906;52.278;6.808;2022-09-02T14:40:18;3.10;;;1.40;;
68870;SDS011;55906;52.278;6.808;2022-09-02T14:42:57;3.60;;;1.25;;
68870;SDS011;55906;52.278;6.808;2022-09-02T14:45:24;3.90;;;1.50;;
68870;SDS011;55906;52.278;6.808;2022-09-02T14:47:53;3.00;;;1.23;;
68870;SDS011;55906;52.278;6.808;2022-09-02T14:50:22;3.20;;;1.40;;
68870;SDS011;55906;52.278;6.808;2022-09-02T14:52:54;3.60;;;1.33;;
68870;SDS011;55906;52.278;6.808;2022-09-02T14:58:20;5.30;;;1.25;;
68870;SDS011;55906;52.278;6.808;2022-09-02T15:00:49;4.85;;;1.70;;
68870;SDS011;55906;52.278;6.808;2022-09-02T15:03:19;4.27;;;1.37;;
68870;SDS011;55906;52.278;6.808;2022-09-02T15:05:46;3.50;;;1.40;;
68870;SDS011;55906;52.278;6.808;2022-09-02T15:08:13;3.75;;;1.50;;
68870;SDS011;55906;52.278;6.808;2022-09-02T15:10:41;4.28;;;1.40;;
68870;SDS011;55906;52.278;6.808;2022-09-02T15:13:11;3.20;;;1.40;;
68870;SDS011;55906;52.278;6.808;2022-09-02T15:15:39;4.13;;;1.50;;
68870;SDS011;55906;52.278;6.808;2022-09-02T15:18:06;3.20;;;1.50;;
68870;SDS011;55906;52.278;6.808;2022-09-02T15:20:33;3.38;;;1.40;;
68870;SDS011;55906;52.278;6.808;2022-09-02T15:22:59;3.95;;;1.50;;
68870;SDS011;55906;52.278;6.808;2022-09-02T15:25:27;3.58;;;1.67;;
68870;SDS011;55906;52.278;6.808;2022-09-02T15:27:53;5.40;;;2.00;;
68870;SDS011;55906;52.278;6.808;2022-09-02T15:30:21;5.60;;;1.75;;
68870;SDS011;55906;52.278;6.808;2022-09-02T15:32:48;3.58;;;1.55;;
68870;SDS011;55906;52.278;6.808;2022-09-02T15:35:15;4.30;;;1.55;;
68870;SDS011;55906;52.278;6.808;2022-09-02T15:37:42;3.28;;;1.45;;
68870;SDS011;55906;52.278;6.808;2022-09-02T15:40:09;4.17;;;1.43;;
68870;SDS011;55906;52.278;6.808;2022-09-02T15:42:37;3.38;;;1.30;;